Time;durP1;ratioP1;P1;durP2;ratioP2;P2;SDS_P1;SDS_P2;PMS_P1;PMS_P2;Temp;Humidity;BMP_temperature;BMP_pressure;BME280_temperature;BME280_humidity;BME280_pressure;Samples;Min_cycle;Max_cycle;Signal;HPM_P1;HPM_P2
2023/12/13 00:01:29;;;;;;;61.78;21.25;;;6.90;85.10;;;;;;5091963;28;20097;-86
2023/12/13 00:04:13;;;;;;;61.30;20.10;;;6.90;85.20;;;;;;5090414;28;20055;-86
2023/12/13 00:06:57;;;;;;;64.10;20.77;;;6.90;85.20;;;;;;5091174;28;20062;-86
2023/12/13 00:09:41;;;;;;;55.65;20.60;;;6.80;85.20;;;;;;5091917;28;20051;-86
2023/12/13 00:12:26;;;;;;;64.28;20.35;;;6.80;85.10;;;;;;5090876;28;20097;-86
2023/12/13 00:15:11;;;;;;;49.40;17.80;;;6.80;85.20;;;;;;5090773;28;20407;-87
2023/12/13 00:17:56;;;;;;;61.08;18.83;;;6.80;85.20;;;;;;5091694;28;20102;-86
2023/12/13 00:20:40;;;;;;;64.15;17.20;;;6.80;85.10;;;;;;5091093;28;20439;-87
2023/12/13 00:23:24;;;;;;;94.43;19.98;;;6.80;85.20;;;;;;5076451;28;20047;-87
2023/12/13 00:26:16;;;;;;;64.35;18.30;;;6.80;85.20;;;;;;5089971;28;20043;-87
2023/12/13 00:29:00;;;;;;;63.30;17.17;;;6.80;85.20;;;;;;5089257;28;20093;-86
2023/12/13 00:31:46;;;;;;;55.05;16.42;;;6.80;85.10;;;;;;5079989;28;20549;-86
2023/12/13 00:34:30;;;;;;;74.05;18.60;;;6.80;85.20;;;;;;5090367;28;20420;-87
2023/12/13 00:37:14;;;;;;;98.45;21.25;;;6.80;85.20;;;;;;5091165;28;20495;-87
2023/12/13 00:39:58;;;;;;;81.07;21.17;;;6.80;85.20;;;;;;5091428;28;20043;-86
2023/12/13 00:42:43;;;;;;;89.53;21.83;;;6.80;85.20;;;;;;5091371;28;20084;-87
2023/12/13 00:45:28;;;;;;;111.45;25.02;;;6.80;85.30;;;;;;5091857;28;20391;-87
2023/12/13 00:48:12;;;;;;;99.07;23.75;;;6.80;85.30;;;;;;5075133;28;20033;-87
2023/12/13 00:50:57;;;;;;;162.32;27.20;;;6.80;85.30;;;;;;5091642;28;20038;-87
2023/12/13 00:53:41;;;;;;;142.23;25.58;;;6.80;85.30;;;;;;5078218;28;20101;-86
2023/12/13 00:56:25;;;;;;;149.55;27.58;;;6.80;85.30;;;;;;5090617;28;20040;-87
2023/12/13 00:59:09;;;;;;;118.85;23.95;;;6.80;85.30;;;;;;5090672;28;20097;-87
2023/12/13 01:01:53;;;;;;;120.75;25.20;;;6.80;85.30;;;;;;5090105;28;20047;-87
2023/12/13 01:04:38;;;;;;;110.20;26.63;;;6.80;85.40;;;;;;5060968;28;20089;-87
2023/12/13 01:07:22;;;;;;;125.47;26.42;;;6.80;85.40;;;;;;5090864;28;20856;-87
2023/12/13 01:10:07;;;;;;;107.20;25.70;;;6.80;85.40;;;;;;5090409;28;20074;-86
2023/12/13 01:12:51;;;;;;;118.15;26.65;;;6.80;85.30;;;;;;5090155;28;20117;-87
2023/12/13 01:15:37;;;;;;;150.80;27.60;;;6.80;85.40;;;;;;5091173;28;20498;-87
2023/12/13 01:18:21;;;;;;;138.40;27.35;;;6.80;85.40;;;;;;5103964;28;20085;-86
2023/12/13 01:21:05;;;;;;;111.35;24.25;;;6.80;85.40;;;;;;5089764;28;20457;-86
2023/12/13 01:23:49;;;;;;;172.57;28.50;;;6.80;85.30;;;;;;5075719;28;20643;-88
2023/12/13 01:26:33;;;;;;;135.82;27.55;;;6.80;85.40;;;;;;5079813;28;20035;-87
2023/12/13 01:29:18;;;;;;;110.75;25.38;;;6.80;85.30;;;;;;5090265;28;20400;-87
2023/12/13 01:32:02;;;;;;;196.43;30.17;;;6.70;85.30;;;;;;5091674;28;20043;-87
2023/12/13 01:34:47;;;;;;;142.02;28.35;;;6.70;85.30;;;;;;5079421;28;20100;-87
2023/12/13 01:37:31;;;;;;;127.82;28.88;;;6.70;85.30;;;;;;5094246;28;20059;-87
2023/12/13 01:40:15;;;;;;;120.00;29.05;;;6.70;85.40;;;;;;5093322;28;20043;-87
2023/12/13 01:42:59;;;;;;;152.68;32.08;;;6.70;85.40;;;;;;5094649;28;20407;-87
2023/12/13 01:45:44;;;;;;;127.38;30.17;;;6.70;85.40;;;;;;5094804;28;20047;-87
2023/12/13 01:48:29;;;;;;;155.93;30.65;;;6.80;85.50;;;;;;5079947;28;20112;-87
2023/12/13 01:51:13;;;;;;;142.55;30.48;;;6.80;85.50;;;;;;5092869;28;20039;-87
2023/12/13 01:53:59;;;;;;;136.93;31.52;;;6.80;85.50;;;;;;5093369;28;20054;-87
2023/12/13 01:56:45;;;;;;;200.65;35.08;;;6.80;85.50;;;;;;5086101;28;20396;-87
2023/12/13 01:59:32;;;;;;;178.20;34.78;;;6.80;85.50;;;;;;5078640;28;20047;-87
2023/12/13 02:02:17;;;;;;;182.63;35.47;;;6.80;85.50;;;;;;5082990;28;20039;-87
2023/12/13 02:05:03;;;;;;;154.82;33.53;;;6.80;85.40;;;;;;5093086;28;20553;-87
2023/12/13 02:07:48;;;;;;;124.55;29.70;;;6.80;85.50;;;;;;5094389;28;20042;-87
2023/12/13 02:10:33;;;;;;;175.07;33.72;;;6.80;85.50;;;;;;5093321;28;20035;-87
2023/12/13 02:13:17;;;;;;;178.68;34.72;;;6.80;85.50;;;;;;5093444;28;20491;-87
2023/12/13 02:16:01;;;;;;;292.25;42.17;;;6.80;85.40;;;;;;5093039;28;20074;-87
2023/12/13 02:18:45;;;;;;;143.07;33.92;;;6.80;85.50;;;;;;5093932;28;20055;-87
2023/12/13 02:21:30;;;;;;;178.38;36.28;;;6.80;85.40;;;;;;5093373;28;20109;-87
2023/12/13 02:24:15;;;;;;;187.52;35.38;;;6.80;85.40;;;;;;5093272;28;20102;-86
2023/12/13 02:26:59;;;;;;;131.80;31.50;;;6.80;85.50;;;;;;5078535;28;20063;-87
2023/12/13 02:29:47;;;;;;;134.30;32.63;;;6.80;85.40;;;;;;5092665;28;20400;-87
2023/12/13 02:32:31;;;;;;;257.13;40.28;;;6.80;85.40;;;;;;5092725;28;20040;-87
2023/12/13 02:35:16;;;;;;;137.68;31.27;;;6.80;85.50;;;;;;5077736;28;20051;-87
2023/12/13 02:38:00;;;;;;;165.88;34.13;;;6.80;85.40;;;;;;5093358;28;20058;-87
2023/12/13 02:40:44;;;;;;;145.95;31.42;;;6.80;85.40;;;;;;5092459;28;20051;-87
2023/12/13 02:43:30;;;;;;;145.27;34.03;;;6.80;85.40;;;;;;5077315;28;20093;-87
2023/12/13 02:46:14;;;;;;;138.57;30.85;;;6.80;85.40;;;;;;5093048;28;20043;-86
2023/12/13 02:48:58;;;;;;;128.60;30.85;;;6.80;85.40;;;;;;5093412;28;20047;-87
2023/12/13 02:51:42;;;;;;;108.72;27.50;;;6.80;85.40;;;;;;5093108;28;20043;-87
2023/12/13 02:54:27;;;;;;;119.75;28.13;;;6.80;85.50;;;;;;5092609;28;20499;-87
2023/12/13 02:57:11;;;;;;;104.95;26.73;;;6.80;85.40;;;;;;5080734;28;20171;-86
2023/12/13 02:59:56;;;;;;;121.47;25.77;;;6.80;85.50;;;;;;5093089;28;20047;-87
2023/12/13 03:02:40;;;;;;;78.95;23.38;;;6.80;85.40;;;;;;5048748;28;20115;-87
2023/12/13 03:05:25;;;;;;;136.25;26.55;;;6.80;85.50;;;;;;5076816;28;20038;-87
2023/12/13 03:08:09;;;;;;;66.78;21.58;;;6.80;85.40;;;;;;5092766;28;20499;-87
2023/12/13 03:10:54;;;;;;;98.47;24.98;;;6.80;85.50;;;;;;5092028;28;20039;-87
2023/12/13 03:13:38;;;;;;;95.03;23.08;;;6.80;85.40;;;;;;5080198;28;20051;-87
2023/12/13 03:16:22;;;;;;;68.93;21.90;;;6.80;85.50;;;;;;5092374;28;20134;-86
2023/12/13 03:19:06;;;;;;;72.55;21.77;;;6.80;85.50;;;;;;5092880;28;20502;-87
2023/12/13 03:21:51;;;;;;;81.78;20.60;;;6.80;85.40;;;;;;5063527;28;20529;-86
2023/12/13 03:24:35;;;;;;;107.40;24.48;;;6.80;85.50;;;;;;5092033;28;20119;-86
2023/12/13 03:27:19;;;;;;;70.50;20.10;;;6.80;85.40;;;;;;5092337;28;20035;-86
2023/12/13 03:30:04;;;;;;;84.05;20.75;;;6.80;85.40;;;;;;5092781;28;20055;-87
2023/12/13 03:32:48;;;;;;;69.53;20.23;;;6.80;85.50;;;;;;5092410;28;20043;-87
2023/12/13 03:35:32;;;;;;;87.85;22.05;;;6.80;85.40;;;;;;5091876;28;20415;-86
2023/12/13 03:38:16;;;;;;;83.90;21.42;;;6.80;85.40;;;;;;5092404;28;20055;-87
2023/12/13 03:41:00;;;;;;;75.68;20.17;;;6.80;85.40;;;;;;5076979;28;20089;-87
2023/12/13 03:43:45;;;;;;;72.32;19.95;;;6.80;85.40;;;;;;5076600;28;20114;-87
2023/12/13 03:46:29;;;;;;;91.40;21.65;;;6.90;85.50;;;;;;5091678;28;20051;-86
2023/12/13 03:49:13;;;;;;;106.60;23.10;;;6.90;85.40;;;;;;5092083;28;20042;-86
2023/12/13 03:51:58;;;;;;;74.50;20.50;;;6.90;85.40;;;;;;5076996;28;20527;-87
2023/12/13 03:54:42;;;;;;;85.07;21.80;;;6.90;85.50;;;;;;5090410;28;20051;-87
2023/12/13 03:57:27;;;;;;;73.90;21.77;;;6.90;85.50;;;;;;5091919;28;20082;-86
2023/12/13 04:00:11;;;;;;;70.90;20.80;;;6.90;85.50;;;;;;5092065;28;20098;-87
2023/12/13 04:02:56;;;;;;;105.15;22.55;;;6.90;85.50;;;;;;5076592;28;20089;-87
2023/12/13 04:05:40;;;;;;;79.75;22.27;;;6.90;85.40;;;;;;5091470;28;20062;-87
2023/12/13 04:08:24;;;;;;;63.65;20.05;;;6.90;85.50;;;;;;5091741;28;20453;-87
2023/12/13 04:11:08;;;;;;;96.30;23.38;;;6.90;85.40;;;;;;5078118;28;20824;-86
2023/12/13 04:13:52;;;;;;;87.15;23.08;;;6.90;85.50;;;;;;5076236;28;20124;-86
2023/12/13 04:16:36;;;;;;;94.70;23.10;;;6.90;85.50;;;;;;5091121;28;20120;-86
2023/12/13 04:19:20;;;;;;;75.95;21.67;;;6.90;85.50;;;;;;5076556;28;20043;-86
2023/12/13 04:22:04;;;;;;;68.43;21.20;;;6.90;85.50;;;;;;5076313;28;20047;-87
2023/12/13 04:24:48;;;;;;;57.15;19.95;;;6.90;85.50;;;;;;5091108;28;20047;-86
2023/12/13 04:27:32;;;;;;;75.43;21.63;;;6.90;85.50;;;;;;5075920;28;20043;-87
2023/12/13 04:30:17;;;;;;;82.78;21.65;;;6.90;85.50;;;;;;5076392;28;20093;-87
2023/12/13 04:33:01;;;;;;;80.50;22.42;;;6.90;85.50;;;;;;5091639;28;20550;-87
2023/12/13 04:35:46;;;;;;;67.15;22.38;;;6.90;85.50;;;;;;5090798;28;20097;-87
2023/12/13 04:38:31;;;;;;;87.47;23.23;;;6.90;85.50;;;;;;5091293;28;20398;-86
2023/12/13 04:41:15;;;;;;;59.00;19.23;;;6.90;85.50;;;;;;5091187;28;20105;-86
2023/12/13 04:43:59;;;;;;;73.38;21.88;;;6.90;85.50;;;;;;5076024;28;20046;-86
2023/12/13 04:46:44;;;;;;;76.57;21.73;;;6.90;85.50;;;;;;5075757;28;20065;-87
2023/12/13 04:49:28;;;;;;;84.15;22.42;;;6.90;85.50;;;;;;5091501;28;20040;-87
2023/12/13 04:52:12;;;;;;;77.07;22.27;;;6.90;85.50;;;;;;5091098;28;20039;-87
2023/12/13 04:54:56;;;;;;;66.90;22.65;;;6.90;85.40;;;;;;5075268;28;20051;-87
2023/12/13 04:57:41;;;;;;;72.40;21.83;;;6.90;85.50;;;;;;5075220;28;20039;-87
2023/12/13 05:00:25;;;;;;;71.95;21.17;;;6.90;85.50;;;;;;5090968;28;20105;-86
2023/12/13 05:03:09;;;;;;;74.05;22.30;;;6.90;85.50;;;;;;5091126;28;20039;-87
2023/12/13 05:05:53;;;;;;;83.97;23.50;;;6.90;85.50;;;;;;5090615;28;20075;-87
2023/12/13 05:08:37;;;;;;;72.28;22.30;;;6.90;85.50;;;;;;5094899;28;20039;-86
2023/12/13 05:11:21;;;;;;;67.72;21.83;;;6.90;85.50;;;;;;5095142;28;20785;-87
2023/12/13 05:14:05;;;;;;;63.65;22.08;;;6.90;85.50;;;;;;5095260;28;20058;-87
2023/12/13 05:16:49;;;;;;;83.03;23.27;;;6.90;85.50;;;;;;5094583;28;20035;-87
2023/12/13 05:19:33;;;;;;;71.03;22.10;;;6.90;85.50;;;;;;5095137;28;20043;-87
2023/12/13 05:22:17;;;;;;;67.78;22.33;;;6.90;85.50;;;;;;5095258;28;20043;-87
2023/12/13 05:25:01;;;;;;;72.13;23.25;;;6.90;85.50;;;;;;5094556;28;20055;-87
2023/12/13 05:27:45;;;;;;;79.60;23.77;;;6.90;85.50;;;;;;5094238;28;20043;-87
2023/12/13 05:30:30;;;;;;;81.82;24.48;;;6.90;85.40;;;;;;5094742;28;20039;-87
2023/12/13 05:33:14;;;;;;;90.55;26.83;;;6.90;85.50;;;;;;5095011;28;20101;-87
2023/12/13 05:35:58;;;;;;;99.93;27.02;;;6.90;85.50;;;;;;5094017;28;20109;-87
2023/12/13 05:38:43;;;;;;;117.45;27.83;;;6.90;85.50;;;;;;5078228;28;20039;-87
2023/12/13 05:41:27;;;;;;;70.13;24.20;;;6.90;85.40;;;;;;5094891;28;20510;-91
2023/12/13 05:44:11;;;;;;;67.15;23.92;;;6.90;85.50;;;;;;5079170;28;20090;-86
2023/12/13 05:46:55;;;;;;;88.57;25.75;;;6.90;85.50;;;;;;5092569;28;20043;-87
2023/12/13 05:49:39;;;;;;;99.15;27.60;;;6.90;85.50;;;;;;5094473;28;20078;-86
2023/12/13 05:52:24;;;;;;;78.43;24.95;;;6.90;85.40;;;;;;5094561;28;20054;-87
2023/12/13 05:55:08;;;;;;;92.82;26.35;;;6.90;85.40;;;;;;5077554;28;20046;-87
2023/12/13 05:57:52;;;;;;;96.25;26.75;;;6.90;85.50;;;;;;5060305;28;20458;-88
2023/12/13 06:00:37;;;;;;;104.63;27.30;;;6.80;85.50;;;;;;5091223;28;20165;-86
2023/12/13 06:03:21;;;;;;;93.63;25.98;;;6.80;85.40;;;;;;5063124;28;20047;-88
2023/12/13 06:06:06;;;;;;;131.63;30.15;;;6.80;85.40;;;;;;5078801;28;20518;-87
2023/12/13 06:08:50;;;;;;;104.13;28.17;;;6.80;85.40;;;;;;5081482;28;20043;-86
2023/12/13 06:11:34;;;;;;;108.82;28.17;;;6.80;85.50;;;;;;5079340;28;20763;-87
2023/12/13 06:14:18;;;;;;;98.53;27.65;;;6.80;85.50;;;;;;5079488;28;20047;-87
2023/12/13 06:17:03;;;;;;;105.90;29.52;;;6.80;85.50;;;;;;5074950;28;20174;-88
2023/12/13 06:19:47;;;;;;;97.90;28.45;;;6.80;85.40;;;;;;5076169;28;20047;-87
2023/12/13 06:22:31;;;;;;;127.93;29.02;;;6.80;85.40;;;;;;5081258;28;20503;-87
2023/12/13 06:25:15;;;;;;;121.13;30.42;;;6.80;85.50;;;;;;5091097;28;20120;-87
2023/12/13 06:27:59;;;;;;;104.15;28.98;;;6.80;85.50;;;;;;5066405;28;20502;-88
2023/12/13 06:30:43;;;;;;;77.00;26.00;;;6.80;85.40;;;;;;5082115;28;20081;-88
2023/12/13 06:33:28;;;;;;;93.18;27.83;;;6.80;85.50;;;;;;5068456;28;20043;-87
2023/12/13 06:36:12;;;;;;;110.25;31.40;;;6.80;85.50;;;;;;5093544;28;20044;-88
2023/12/13 06:38:56;;;;;;;100.15;27.00;;;6.80;85.50;;;;;;5081744;28;20039;-87
2023/12/13 06:41:40;;;;;;;100.47;30.35;;;6.80;85.50;;;;;;5084431;28;20039;-87
2023/12/13 06:44:24;;;;;;;150.00;32.15;;;6.80;85.50;;;;;;5093147;28;20082;-86
2023/12/13 06:47:08;;;;;;;126.32;30.20;;;6.80;85.50;;;;;;5079158;28;20055;-87
2023/12/13 06:49:53;;;;;;;137.68;31.90;;;6.80;85.50;;;;;;5094524;28;20499;-87
2023/12/13 06:52:38;;;;;;;96.53;28.02;;;6.80;85.50;;;;;;5081311;28;20109;-87
2023/12/13 06:55:22;;;;;;;185.80;33.80;;;6.80;85.50;;;;;;5069780;28;20039;-87
2023/12/13 06:58:06;;;;;;;104.80;29.67;;;6.80;85.50;;;;;;5092371;28;20047;-87
2023/12/13 07:00:51;;;;;;;113.65;30.75;;;6.80;85.50;;;;;;5078784;28;20123;-85
2023/12/13 07:03:35;;;;;;;104.00;30.35;;;6.80;85.50;;;;;;5082220;28;20082;-87
2023/12/13 07:06:19;;;;;;;111.13;29.42;;;6.80;85.50;;;;;;5080079;28;20044;-87
2023/12/13 07:09:04;;;;;;;109.70;28.42;;;6.80;85.50;;;;;;5078448;28;20088;-87
2023/12/13 07:11:48;;;;;;;166.98;35.45;;;6.80;85.50;;;;;;5079609;28;20044;-86
2023/12/13 07:14:34;;;;;;;221.27;37.10;;;6.80;85.50;;;;;;5081168;28;20050;-87
2023/12/13 07:17:19;;;;;;;126.03;31.75;;;6.80;85.50;;;;;;5067763;28;20100;-87
2023/12/13 07:20:04;;;;;;;106.63;30.33;;;6.80;85.50;;;;;;5078642;28;20043;-87
2023/12/13 07:22:51;;;;;;;113.43;30.73;;;6.80;85.50;;;;;;5078938;28;20051;-87
2023/12/13 07:25:36;;;;;;;135.38;33.83;;;6.80;85.50;;;;;;5092620;28;20097;-87
2023/12/13 07:28:19;;;;;;;90.05;30.27;;;6.80;85.40;;;;;;5092591;28;20039;-87
2023/12/13 07:31:06;;;;;;;142.75;33.05;;;6.80;85.50;;;;;;5092187;28;20051;-87
2023/12/13 07:33:51;;;;;;;111.22;30.60;;;6.80;85.50;;;;;;5076941;28;20529;-87
2023/12/13 07:36:36;;;;;;;133.80;33.25;;;6.80;85.50;;;;;;5092413;28;20109;-87
2023/12/13 07:39:20;;;;;;;139.75;32.15;;;6.80;85.50;;;;;;5066532;28;20416;-87
2023/12/13 07:42:04;;;;;;;106.40;29.98;;;6.80;85.50;;;;;;5062292;28;20047;-86
2023/12/13 07:44:48;;;;;;;152.88;32.95;;;6.80;85.50;;;;;;5087314;28;20051;-87
2023/12/13 07:47:33;;;;;;;124.18;32.05;;;6.80;85.50;;;;;;5074431;28;20067;-87
2023/12/13 07:50:18;;;;;;;92.07;28.05;;;6.80;85.50;;;;;;5060581;28;20040;-87
2023/12/13 07:53:02;;;;;;;94.22;29.67;;;6.80;85.50;;;;;;5060066;28;20451;-87
2023/12/13 07:55:46;;;;;;;162.98;35.20;;;6.80;85.50;;;;;;5089509;28;20496;-88
2023/12/13 07:58:31;;;;;;;140.98;33.22;;;6.80;85.50;;;;;;5064856;28;20047;-87
2023/12/13 08:01:15;;;;;;;131.88;34.85;;;6.90;85.40;;;;;;5078766;28;20035;-87
2023/12/13 08:03:59;;;;;;;103.75;31.85;;;6.80;85.50;;;;;;5078809;28;20043;-86
2023/12/13 08:06:44;;;;;;;93.03;30.08;;;6.90;85.50;;;;;;5097357;28;20051;-87
2023/12/13 08:09:28;;;;;;;155.63;34.75;;;6.90;85.50;;;;;;5069356;28;20063;-87
2023/12/13 08:12:12;;;;;;;134.52;34.00;;;6.90;85.50;;;;;;5093814;28;20077;-87
2023/12/13 08:14:56;;;;;;;121.28;33.47;;;6.90;85.50;;;;;;5089560;28;20047;-87
2023/12/13 08:17:40;;;;;;;140.90;34.78;;;6.90;85.50;;;;;;5077670;28;20113;-87
2023/12/13 08:20:29;;;;;;;106.20;31.38;;;6.90;85.50;;;;;;5073105;28;20043;-87
2023/12/13 08:23:13;;;;;;;89.15;29.40;;;6.90;85.50;;;;;;5074424;28;20396;-87
2023/12/13 08:25:57;;;;;;;98.30;29.60;;;6.90;85.50;;;;;;5091785;28;20046;-87
2023/12/13 08:28:41;;;;;;;122.63;33.17;;;6.90;85.50;;;;;;5060995;28;20090;-88
2023/12/13 08:31:25;;;;;;;125.53;33.47;;;6.90;85.60;;;;;;5060464;28;20075;-87
2023/12/13 08:34:10;;;;;;;112.60;32.63;;;7.00;85.50;;;;;;5075453;28;20518;-87
2023/12/13 08:36:54;;;;;;;141.70;34.63;;;7.00;85.60;;;;;;5062264;28;20051;-87
2023/12/13 08:39:40;;;;;;;114.32;33.00;;;7.00;85.50;;;;;;5097432;28;20100;-87
2023/12/13 08:42:25;;;;;;;224.52;40.65;;;7.00;85.60;;;;;;5079027;28;20409;-87
2023/12/13 08:45:10;;;;;;;106.20;31.65;;;7.00;85.50;;;;;;5091464;28;20061;-87
2023/12/13 08:47:54;;;;;;;95.13;29.63;;;7.00;85.50;;;;;;5068690;28;20086;-87
2023/12/13 08:50:38;;;;;;;101.97;31.80;;;7.00;85.50;;;;;;5064275;28;20145;-87
2023/12/13 08:53:22;;;;;;;157.52;37.05;;;7.00;85.50;;;;;;5078175;28;20039;-87
2023/12/13 08:56:07;;;;;;;142.70;35.95;;;7.00;85.50;;;;;;5071676;28;20090;-86
2023/12/13 08:58:51;;;;;;;114.35;33.15;;;7.10;85.60;;;;;;5073263;28;20089;-87
2023/12/13 09:01:35;;;;;;;121.28;32.20;;;7.00;85.50;;;;;;5090194;28;20034;-87
2023/12/13 09:04:19;;;;;;;104.90;30.45;;;7.10;85.50;;;;;;5078404;28;20047;-87
2023/12/13 09:07:03;;;;;;;102.20;30.65;;;7.10;85.50;;;;;;5081721;28;20058;-87
2023/12/13 09:09:47;;;;;;;100.13;31.90;;;7.10;85.60;;;;;;5085297;28;20039;-87
2023/12/13 09:12:31;;;;;;;105.22;31.40;;;7.20;85.50;;;;;;5073701;28;20067;-87
2023/12/13 09:15:19;;;;;;;106.07;30.83;;;7.20;85.60;;;;;;5071967;28;20087;-84
2023/12/13 09:18:03;;;;;;;109.60;31.20;;;7.20;85.50;;;;;;5087347;28;20443;-85
2023/12/13 09:20:47;;;;;;;110.53;30.83;;;7.20;85.60;;;;;;5057177;28;20059;-86
2023/12/13 09:23:35;;;;;;;83.38;28.90;;;7.20;85.50;;;;;;5074676;28;20051;-85
2023/12/13 09:26:19;;;;;;;125.38;31.17;;;7.20;85.50;;;;;;5075408;28;20117;-87
2023/12/13 09:29:04;;;;;;;99.82;30.63;;;7.30;85.50;;;;;;5056159;28;20108;-86
2023/12/13 09:31:49;;;;;;;137.80;34.22;;;7.30;85.50;;;;;;5086099;28;20050;-87
2023/12/13 09:34:33;;;;;;;117.93;32.22;;;7.30;85.50;;;;;;5090773;28;20074;-87
2023/12/13 09:37:17;;;;;;;109.90;31.40;;;7.30;85.50;;;;;;5075046;28;20120;-87
2023/12/13 09:40:01;;;;;;;116.90;31.38;;;7.30;85.50;;;;;;5090986;28;20047;-87
2023/12/13 09:42:46;;;;;;;96.82;31.00;;;7.40;85.50;;;;;;5091513;28;20090;-87
2023/12/13 09:45:31;;;;;;;81.72;27.85;;;7.40;85.50;;;;;;5090289;28;20043;-88
2023/12/13 09:48:21;;;;;;;98.72;29.33;;;7.40;85.50;;;;;;5055506;28;20044;-88
2023/12/13 09:51:09;;;;;;;90.55;29.77;;;7.40;85.50;;;;;;5090789;28;20139;-88
2023/12/13 09:53:56;;;;;;;101.00;29.75;;;7.40;85.40;;;;;;5063873;28;20047;-88
2023/12/13 09:56:41;;;;;;;82.57;28.67;;;7.40;85.50;;;;;;5094456;28;20081;-89
2023/12/13 09:59:25;;;;;;;102.97;30.77;;;7.40;85.40;;;;;;5078593;28;20089;-87
2023/12/13 10:02:12;;;;;;;94.13;30.35;;;7.40;85.50;;;;;;5094669;28;20051;-88
2023/12/13 10:04:59;;;;;;;99.78;30.50;;;7.40;85.50;;;;;;5079070;28;20043;-88
2023/12/13 10:07:44;;;;;;;79.00;27.63;;;7.50;85.40;;;;;;5094309;28;20177;-88
2023/12/13 10:10:31;;;;;;;83.82;29.58;;;7.40;85.40;;;;;;5093933;28;20043;-89
2023/12/13 10:13:15;;;;;;;87.32;29.70;;;7.50;85.40;;;;;;5079722;28;20096;-87
2023/12/13 10:16:13;;;;;;;88.35;28.25;;;7.50;85.40;;;;;;5094202;28;20047;-87
2023/12/13 10:18:57;;;;;;;93.45;27.52;;;7.50;85.50;;;;;;5094253;28;20093;-87
2023/12/13 10:21:41;;;;;;;74.22;28.30;;;7.50;85.40;;;;;;5094321;28;20035;-87
2023/12/13 10:24:27;;;;;;;78.85;30.33;;;7.60;85.40;;;;;;5093760;28;20119;-87
2023/12/13 10:27:12;;;;;;;87.45;29.48;;;7.50;85.40;;;;;;5064723;28;20107;-86
2023/12/13 10:29:56;;;;;;;86.97;29.65;;;7.60;85.30;;;;;;5078631;28;20519;-83
2023/12/13 10:32:41;;;;;;;85.82;30.13;;;7.60;85.40;;;;;;5093909;28;20108;-86
2023/12/13 10:35:25;;;;;;;82.22;27.75;;;7.60;85.40;;;;;;5093420;28;20157;-86
2023/12/13 10:38:13;;;;;;;80.85;28.58;;;7.60;85.40;;;;;;5093741;28;20063;-90
2023/12/13 10:40:59;;;;;;;88.13;29.02;;;7.60;85.40;;;;;;5093992;28;20173;-84
2023/12/13 10:43:45;;;;;;;70.25;27.25;;;7.60;85.40;;;;;;5093452;28;20082;-84
2023/12/13 10:46:40;;;;;;;90.75;28.92;;;7.70;85.40;;;;;;5092952;28;20093;-87
2023/12/13 10:49:24;;;;;;;77.85;27.25;;;7.70;85.40;;;;;;5087302;28;20079;-85
2023/12/13 10:52:09;;;;;;;97.22;28.42;;;7.60;85.40;;;;;;5084089;28;20089;-83
2023/12/13 10:54:55;;;;;;;86.82;27.83;;;7.70;85.40;;;;;;5081237;28;20130;-85
2023/12/13 10:57:39;;;;;;;86.60;30.17;;;7.70;85.40;;;;;;5066166;28;20093;-84
2023/12/13 11:00:26;;;;;;;111.25;31.30;;;7.70;85.40;;;;;;5081124;28;20035;-86
2023/12/13 11:03:24;;;;;;;81.28;27.75;;;7.70;85.50;;;;;;5089588;28;20098;-85
2023/12/13 11:06:13;;;;;;;80.95;27.92;;;7.70;85.40;;;;;;5083557;28;20070;-85
2023/12/13 11:09:21;;;;;;;76.65;26.27;;;7.70;85.40;;;;;;5075338;28;20051;-86
2023/12/13 11:12:09;;;;;;;109.60;29.60;;;7.70;85.40;;;;;;5067579;28;20528;-85
2023/12/13 11:14:53;;;;;;;88.53;28.52;;;7.70;85.40;;;;;;5075634;28;20090;-85
2023/12/13 11:17:38;;;;;;;116.40;29.52;;;7.70;85.30;;;;;;5079049;28;20038;-86
2023/12/13 11:20:22;;;;;;;81.35;27.08;;;7.70;85.30;;;;;;5075799;28;20048;-86
2023/12/13 11:23:08;;;;;;;81.80;29.88;;;7.70;85.30;;;;;;5060061;28;20166;-85
2023/12/13 11:25:56;;;;;;;84.85;28.85;;;7.70;85.30;;;;;;5073663;28;20051;-86
2023/12/13 11:28:47;;;;;;;87.20;28.63;;;7.70;85.30;;;;;;5084111;28;20495;-86
2023/12/13 11:31:32;;;;;;;73.10;26.10;;;7.70;85.20;;;;;;5079467;28;20543;-86
2023/12/13 11:34:18;;;;;;;91.10;28.38;;;7.70;85.30;;;;;;5084973;28;20400;-85
2023/12/13 11:37:07;;;;;;;88.60;27.13;;;7.70;85.30;;;;;;5084891;28;20424;-86
2023/12/13 11:39:51;;;;;;;84.82;27.52;;;7.70;85.30;;;;;;5079160;28;20496;-85
2023/12/13 11:42:36;;;;;;;81.03;26.77;;;7.70;85.20;;;;;;5082781;28;20036;-86
2023/12/13 11:45:20;;;;;;;82.40;27.83;;;7.70;85.30;;;;;;5072806;28;20132;-86
2023/12/13 11:48:05;;;;;;;99.38;27.45;;;7.70;85.30;;;;;;5080890;28;20046;-86
2023/12/13 11:50:52;;;;;;;81.10;26.42;;;7.70;85.30;;;;;;5081672;28;20039;-86
2023/12/13 11:53:36;;;;;;;80.68;26.92;;;7.70;85.30;;;;;;5079367;28;20153;-85
2023/12/13 11:56:21;;;;;;;84.90;27.02;;;7.70;85.30;;;;;;5084876;28;20043;-85
2023/12/13 11:59:06;;;;;;;81.63;27.23;;;7.70;85.30;;;;;;5083659;28;20043;-85
2023/12/13 12:01:51;;;;;;;135.15;32.95;;;7.70;85.30;;;;;;5061344;28;20134;-86
2023/12/13 12:04:35;;;;;;;91.95;28.75;;;7.70;85.30;;;;;;5084767;28;20088;-86
2023/12/13 12:07:19;;;;;;;112.47;31.40;;;7.70;85.30;;;;;;5076931;28;20031;-86
2023/12/13 12:10:05;;;;;;;150.40;33.83;;;7.70;85.40;;;;;;5074823;28;20085;-85
2023/12/13 12:12:49;;;;;;;142.00;31.45;;;7.70;85.40;;;;;;5085817;28;20464;-85
2023/12/13 12:15:35;;;;;;;94.35;28.90;;;7.70;85.40;;;;;;5087963;28;20047;-87
2023/12/13 12:18:19;;;;;;;97.28;30.20;;;7.70;85.40;;;;;;5072045;28;20121;-88
2023/12/13 12:21:06;;;;;;;97.30;29.73;;;7.70;85.40;;;;;;5090305;28;20035;-87
2023/12/13 12:23:50;;;;;;;99.95;29.15;;;7.70;85.40;;;;;;5086352;28;20089;-84
2023/12/13 12:26:34;;;;;;;121.28;32.10;;;7.70;85.40;;;;;;5075402;28;20047;-87
2023/12/13 12:29:18;;;;;;;140.80;31.77;;;7.70;85.40;;;;;;5079190;28;20089;-87
2023/12/13 12:32:12;;;;;;;122.85;32.03;;;7.70;85.40;;;;;;5065200;28;20085;-87
2023/12/13 12:34:57;;;;;;;125.68;31.70;;;7.70;85.40;;;;;;5077588;28;20055;-86
2023/12/13 12:37:43;;;;;;;178.15;34.50;;;7.70;85.50;;;;;;5053815;28;20326;-86
2023/12/13 12:40:27;;;;;;;172.70;36.33;;;7.70;85.50;;;;;;5051251;28;20048;-87
2023/12/13 12:43:11;;;;;;;147.10;35.58;;;7.70;85.50;;;;;;5041909;28;20070;-86
2023/12/13 12:45:55;;;;;;;138.05;34.28;;;7.70;85.50;;;;;;5070302;28;20043;-90
2023/12/13 12:48:39;;;;;;;120.97;34.78;;;7.70;85.50;;;;;;5070695;28;20090;-86
2023/12/13 12:51:23;;;;;;;121.15;32.92;;;7.70;85.60;;;;;;5058494;28;20035;-82
2023/12/13 12:54:08;;;;;;;125.88;32.88;;;7.70;85.50;;;;;;5055560;28;20475;-88
2023/12/13 12:56:52;;;;;;;123.88;34.15;;;7.70;85.50;;;;;;5065562;28;20040;-85
2023/12/13 12:59:36;;;;;;;158.23;36.83;;;7.70;85.50;;;;;;5060229;28;20035;-88
2023/12/13 13:02:20;;;;;;;181.57;38.65;;;7.70;85.60;;;;;;5068203;28;20048;-89
2023/12/13 13:05:05;;;;;;;110.93;33.35;;;7.80;85.60;;;;;;5068683;28;20051;-88
2023/12/13 13:07:49;;;;;;;114.97;33.50;;;7.80;85.50;;;;;;5061263;28;20488;-87
2023/12/13 13:10:34;;;;;;;153.52;36.75;;;7.80;85.60;;;;;;5053013;28;20063;-86
2023/12/13 13:13:18;;;;;;;134.13;34.25;;;7.80;85.60;;;;;;5049821;28;20093;-88
2023/12/13 13:16:03;;;;;;;117.22;32.88;;;7.80;85.60;;;;;;5051110;28;20055;-87
2023/12/13 13:18:47;;;;;;;110.88;32.15;;;7.80;85.60;;;;;;5051919;28;20495;-87
2023/12/13 13:21:34;;;;;;;98.03;31.08;;;7.90;85.60;;;;;;5051845;28;20036;-87
2023/12/13 13:24:19;;;;;;;98.25;31.85;;;7.80;85.60;;;;;;5052627;28;20052;-88
2023/12/13 13:27:03;;;;;;;115.93;32.25;;;7.90;85.60;;;;;;5071399;28;20120;-87
2023/12/13 13:29:47;;;;;;;108.78;31.45;;;7.80;85.60;;;;;;5074193;28;20120;-87
2023/12/13 13:32:31;;;;;;;97.72;30.65;;;7.80;85.50;;;;;;5074540;28;20071;-87
2023/12/13 13:35:15;;;;;;;92.40;30.58;;;7.80;85.40;;;;;;5074330;28;20051;-87
2023/12/13 13:37:59;;;;;;;112.35;30.65;;;7.80;85.40;;;;;;5074201;28;20059;-87
2023/12/13 13:40:43;;;;;;;107.28;32.22;;;7.80;85.50;;;;;;5073909;28;20106;-87
2023/12/13 13:43:27;;;;;;;116.40;30.30;;;7.90;85.50;;;;;;5074391;28;20085;-87
2023/12/13 13:46:12;;;;;;;88.53;29.63;;;7.80;85.40;;;;;;5059238;28;20059;-87
2023/12/13 13:48:56;;;;;;;88.30;29.85;;;7.90;85.50;;;;;;5073588;28;20039;-88
2023/12/13 13:51:40;;;;;;;105.28;31.42;;;7.90;85.50;;;;;;5073914;28;20044;-86
2023/12/13 13:54:24;;;;;;;107.70;31.17;;;7.90;85.40;;;;;;5074015;28;20043;-86
2023/12/13 13:57:08;;;;;;;81.60;27.13;;;7.90;85.50;;;;;;5074128;28;20123;-87
2023/12/13 13:59:52;;;;;;;73.15;21.35;;;7.80;85.60;;;;;;5073367;28;20051;-86